sensor_id;sensor_type;location;lat;lon;timestamp;temperature;humidity
24011;DHT22;12217;50.792;4.372;2022-09-13T00:00:38;21.00;99.90
24011;DHT22;12217;50.792;4.372;2022-09-13T00:03:04;21.00;99.90
24011;DHT22;12217;50.792;4.372;2022-09-13T00:05:30;20.90;99.90
24011;DHT22;12217;50.792;4.372;2022-09-13T00:07:56;20.90;99.90
24011;DHT22;12217;50.792;4.372;2022-09-13T00:10:23;20.90;99.90
24011;DHT22;12217;50.792;4.372;2022-09-13T00:12:49;21.00;99.90
24011;DHT22;12217;50.792;4.372;2022-09-13T00:15:15;21.00;99.90
24011;DHT22;12217;50.792;4.372;2022-09-13T00:17:41;21.00;99.90
24011;DHT22;12217;50.792;4.372;2022-09-13T00:20:07;21.00;99.90
24011;DHT22;12217;50.792;4.372;2022-09-13T00:22:34;21.00;99.90
24011;DHT22;12217;50.792;4.372;2022-09-13T00:25:00;20.90;99.90
24011;DHT22;12217;50.792;4.372;2022-09-13T00:27:26;21.00;99.90
24011;DHT22;12217;50.792;4.372;2022-09-13T00:29:52;21.00;99.90
24011;DHT22;12217;50.792;4.372;2022-09-13T00:32:17;21.00;99.90
24011;DHT22;12217;50.792;4.372;2022-09-13T00:34:43;21.00;99.90
24011;DHT22;12217;50.792;4.372;2022-09-13T00:37:09;20.90;99.90
24011;DHT22;12217;50.792;4.372;2022-09-13T00:39:35;20.90;99.90
24011;DHT22;12217;50.792;4.372;2022-09-13T00:42:01;20.90;99.90
24011;DHT22;12217;50.792;4.372;2022-09-13T00:50:39;20.90;99.90
24011;DHT22;12217;50.792;4.372;2022-09-13T00:53:13;20.90;99.90
24011;DHT22;12217;50.792;4.372;2022-09-13T00:55:50;20.90;99.90
24011;DHT22;12217;50.792;4.372;2022-09-13T00:58:26;20.90;99.90
24011;DHT22;12217;50.792;4.372;2022-09-13T01:00:55;20.90;99.90
24011;DHT22;12217;50.792;4.372;2022-09-13T01:03:25;20.80;99.90
24011;DHT22;12217;50.792;4.372;2022-09-13T01:06:08;20.80;99.90
24011;DHT22;12217;50.792;4.372;2022-09-13T01:08:35;20.80;99.90
24011;DHT22;12217;50.792;4.372;2022-09-13T01:11:07;20.80;99.90
24011;DHT22;12217;50.792;4.372;2022-09-13T01:13:37;20.80;99.90
24011;DHT22;12217;50.792;4.372;2022-09-13T01:16:04;20.70;99.90
24011;DHT22;12217;50.792;4.372;2022-09-13T01:18:30;20.70;99.90
24011;DHT22;12217;50.792;4.372;2022-09-13T01:32:41;21.20;99.90
24011;DHT22;12217;50.792;4.372;2022-09-13T01:49:02;21.40;99.90
24011;DHT22;12217;50.792;4.372;2022-09-13T01:51:40;21.40;99.90
24011;DHT22;12217;50.792;4.372;2022-09-13T01:54:19;21.50;99.90
24011;DHT22;12217;50.792;4.372;2022-09-13T01:57:01;21.50;99.90
24011;DHT22;12217;50.792;4.372;2022-09-13T01:59:52;21.50;99.90
24011;DHT22;12217;50.792;4.372;2022-09-13T02:04:52;21.40;99.90
24011;DHT22;12217;50.792;4.372;2022-09-13T02:07:25;21.40;99.90
24011;DHT22;12217;50.792;4.372;2022-09-13T02:09:57;21.30;99.90
24011;DHT22;12217;50.792;4.372;2022-09-13T02:12:26;21.40;99.90
24011;DHT22;12217;50.792;4.372;2022-09-13T02:15:17;21.40;99.90
24011;DHT22;12217;50.792;4.372;2022-09-13T02:20:31;21.30;99.90
24011;DHT22;12217;50.792;4.372;2022-09-13T02:23:02;21.30;99.90
24011;DHT22;12217;50.792;4.372;2022-09-13T02:25:31;21.30;99.90
24011;DHT22;12217;50.792;4.372;2022-09-13T02:28:00;21.30;99.90
24011;DHT22;12217;50.792;4.372;2022-09-13T02:30:29;21.20;99.90
24011;DHT22;12217;50.792;4.372;2022-09-13T02:33:10;21.20;99.90
24011;DHT22;12217;50.792;4.372;2022-09-13T02:35:45;21.20;99.90
24011;DHT22;12217;50.792;4.372;2022-09-13T02:38:26;21.30;99.90
24011;DHT22;12217;50.792;4.372;2022-09-13T02:41:02;21.20;99.90
24011;DHT22;12217;50.792;4.372;2022-09-13T02:44:10;21.10;99.90
24011;DHT22;12217;50.792;4.372;2022-09-13T02:46:47;21.10;99.90
24011;DHT22;12217;50.792;4.372;2022-09-13T02:49:37;21.10;99.90
24011;DHT22;12217;50.792;4.372;2022-09-13T02:52:35;21.10;99.90
24011;DHT22;12217;50.792;4.372;2022-09-13T02:57:51;21.10;99.90
24011;DHT22;12217;50.792;4.372;2022-09-13T03:00:20;21.00;99.90
24011;DHT22;12217;50.792;4.372;2022-09-13T03:02:47;21.00;99.90
24011;DHT22;12217;50.792;4.372;2022-09-13T03:05:14;21.10;99.90
24011;DHT22;12217;50.792;4.372;2022-09-13T03:07:40;21.10;99.90
24011;DHT22;12217;50.792;4.372;2022-09-13T03:10:09;21.10;99.90
24011;DHT22;12217;50.792;4.372;2022-09-13T03:13:04;21.10;99.90
24011;DHT22;12217;50.792;4.372;2022-09-13T03:15:44;21.10;99.90
24011;DHT22;12217;50.792;4.372;2022-09-13T03:31:31;21.00;99.90
24011;DHT22;12217;50.792;4.372;2022-09-13T03:34:39;21.00;99.90
24011;DHT22;12217;50.792;4.372;2022-09-13T03:37:07;21.10;99.90
24011;DHT22;12217;50.792;4.372;2022-09-13T03:39:45;21.10;99.90
24011;DHT22;12217;50.792;4.372;2022-09-13T03:42:22;21.00;99.90
24011;DHT22;12217;50.792;4.372;2022-09-13T03:44:49;21.00;99.90
24011;DHT22;12217;50.792;4.372;2022-09-13T03:47:17;21.00;99.90
24011;DHT22;12217;50.792;4.372;2022-09-13T03:49:43;21.00;99.90
24011;DHT22;12217;50.792;4.372;2022-09-13T03:52:09;21.00;99.90
24011;DHT22;12217;50.792;4.372;2022-09-13T03:54:36;20.90;99.90
24011;DHT22;12217;50.792;4.372;2022-09-13T03:57:12;20.90;99.90
24011;DHT22;12217;50.792;4.372;2022-09-13T03:59:42;20.90;99.90
24011;DHT22;12217;50.792;4.372;2022-09-13T04:02:09;20.90;99.90
24011;DHT22;12217;50.792;4.372;2022-09-13T04:04:37;20.90;99.90
24011;DHT22;12217;50.792;4.372;2022-09-13T04:07:03;20.90;99.90
24011;DHT22;12217;50.792;4.372;2022-09-13T04:09:29;20.90;99.90
24011;DHT22;12217;50.792;4.372;2022-09-13T04:11:55;20.90;99.90
24011;DHT22;12217;50.792;4.372;2022-09-13T04:14:21;20.90;99.90
24011;DHT22;12217;50.792;4.372;2022-09-13T04:16:51;20.90;99.90
24011;DHT22;12217;50.792;4.372;2022-09-13T04:19:16;20.80;99.90
24011;DHT22;12217;50.792;4.372;2022-09-13T04:21:42;20.80;99.90
24011;DHT22;12217;50.792;4.372;2022-09-13T04:24:08;20.80;99.90
24011;DHT22;12217;50.792;4.372;2022-09-13T04:26:34;20.80;99.90
24011;DHT22;12217;50.792;4.372;2022-09-13T04:29:00;20.80;99.90
24011;DHT22;12217;50.792;4.372;2022-09-13T04:31:25;20.80;99.90
24011;DHT22;12217;50.792;4.372;2022-09-13T04:33:51;20.80;99.90
24011;DHT22;12217;50.792;4.372;2022-09-13T04:36:16;20.80;99.90
24011;DHT22;12217;50.792;4.372;2022-09-13T04:38:42;20.80;99.90
24011;DHT22;12217;50.792;4.372;2022-09-13T04:41:07;20.70;99.90
24011;DHT22;12217;50.792;4.372;2022-09-13T04:43:35;20.70;99.90
24011;DHT22;12217;50.792;4.372;2022-09-13T04:46:00;20.70;99.90
24011;DHT22;12217;50.792;4.372;2022-09-13T04:48:26;20.70;99.90
24011;DHT22;12217;50.792;4.372;2022-09-13T04:50:52;20.60;99.90
24011;DHT22;12217;50.792;4.372;2022-09-13T04:53:17;20.70;99.90
24011;DHT22;12217;50.792;4.372;2022-09-13T04:55:43;20.50;99.90
24011;DHT22;12217;50.792;4.372;2022-09-13T04:58:09;20.60;99.90
24011;DHT22;12217;50.792;4.372;2022-09-13T05:00:34;20.60;99.90
24011;DHT22;12217;50.792;4.372;2022-09-13T05:03:00;20.70;99.90
24011;DHT22;12217;50.792;4.372;2022-09-13T05:05:26;20.80;99.90
24011;DHT22;12217;50.792;4.372;2022-09-13T05:07:53;20.70;99.90
24011;DHT22;12217;50.792;4.372;2022-09-13T05:10:19;20.70;99.90
24011;DHT22;12217;50.792;4.372;2022-09-13T05:12:45;20.70;99.90
24011;DHT22;12217;50.792;4.372;2022-09-13T05:15:10;20.70;99.90
24011;DHT22;12217;50.792;4.372;2022-09-13T05:17:37;20.70;99.90
24011;DHT22;12217;50.792;4.372;2022-09-13T05:20:03;20.70;99.90
24011;DHT22;12217;50.792;4.372;2022-09-13T05:22:32;20.70;99.90
24011;DHT22;12217;50.792;4.372;2022-09-13T05:24:57;20.70;99.90
24011;DHT22;12217;50.792;4.372;2022-09-13T05:27:23;20.70;99.90
24011;DHT22;12217;50.792;4.372;2022-09-13T05:29:49;20.70;99.90
24011;DHT22;12217;50.792;4.372;2022-09-13T05:32:14;20.70;99.90
24011;DHT22;12217;50.792;4.372;2022-09-13T05:34:40;20.70;99.90
24011;DHT22;12217;50.792;4.372;2022-09-13T05:37:05;20.70;99.90
24011;DHT22;12217;50.792;4.372;2022-09-13T05:39:31;20.70;99.90
24011;DHT22;12217;50.792;4.372;2022-09-13T05:41:56;20.70;99.90
24011;DHT22;12217;50.792;4.372;2022-09-13T05:44:23;20.70;99.90
24011;DHT22;12217;50.792;4.372;2022-09-13T05:46:48;20.70;99.90
24011;DHT22;12217;50.792;4.372;2022-09-13T05:49:14;20.60;99.90
24011;DHT22;12217;50.792;4.372;2022-09-13T05:51:40;20.60;99.90
24011;DHT22;12217;50.792;4.372;2022-09-13T05:54:06;20.50;99.90
24011;DHT22;12217;50.792;4.372;2022-09-13T05:56:31;20.50;99.90
24011;DHT22;12217;50.792;4.372;2022-09-13T05:58:57;20.60;99.90
24011;DHT22;12217;50.792;4.372;2022-09-13T06:01:25;20.60;99.90
24011;DHT22;12217;50.792;4.372;2022-09-13T06:03:53;20.60;99.90
24011;DHT22;12217;50.792;4.372;2022-09-13T06:06:20;20.60;99.90
24011;DHT22;12217;50.792;4.372;2022-09-13T06:08:47;20.60;99.90
24011;DHT22;12217;50.792;4.372;2022-09-13T06:11:14;20.50;99.90
24011;DHT22;12217;50.792;4.372;2022-09-13T06:13:40;20.50;99.90
24011;DHT22;12217;50.792;4.372;2022-09-13T06:16:09;20.50;99.90
24011;DHT22;12217;50.792;4.372;2022-09-13T06:18:35;20.60;99.90
24011;DHT22;12217;50.792;4.372;2022-09-13T06:21:12;20.60;99.90
24011;DHT22;12217;50.792;4.372;2022-09-13T06:23:46;20.50;99.90
24011;DHT22;12217;50.792;4.372;2022-09-13T06:26:13;20.50;99.90
24011;DHT22;12217;50.792;4.372;2022-09-13T06:28:40;20.50;99.90
24011;DHT22;12217;50.792;4.372;2022-09-13T06:31:08;20.60;99.90
24011;DHT22;12217;50.792;4.372;2022-09-13T06:33:36;20.60;99.90
24011;DHT22;12217;50.792;4.372;2022-09-13T06:36:03;20.60;99.90
24011;DHT22;12217;50.792;4.372;2022-09-13T06:38:29;20.60;99.90
24011;DHT22;12217;50.792;4.372;2022-09-13T06:41:15;20.70;99.90
24011;DHT22;12217;50.792;4.372;2022-09-13T06:43:43;20.70;99.90
24011;DHT22;12217;50.792;4.372;2022-09-13T06:46:11;20.80;99.90
24011;DHT22;12217;50.792;4.372;2022-09-13T06:48:39;20.80;99.90
24011;DHT22;12217;50.792;4.372;2022-09-13T06:51:08;20.80;99.90
24011;DHT22;12217;50.792;4.372;2022-09-13T06:53:35;20.90;99.90
24011;DHT22;12217;50.792;4.372;2022-09-13T06:56:13;20.80;99.90
24011;DHT22;12217;50.792;4.372;2022-09-13T06:58:45;20.80;99.90
24011;DHT22;12217;50.792;4.372;2022-09-13T07:01:17;20.90;99.90
24011;DHT22;12217;50.792;4.372;2022-09-13T07:03:44;21.00;99.90
24011;DHT22;12217;50.792;4.372;2022-09-13T07:06:17;21.00;99.90
24011;DHT22;12217;50.792;4.372;2022-09-13T07:08:45;21.10;99.90
24011;DHT22;12217;50.792;4.372;2022-09-13T07:11:13;21.10;99.90
24011;DHT22;12217;50.792;4.372;2022-09-13T07:13:39;21.00;99.90
24011;DHT22;12217;50.792;4.372;2022-09-13T07:16:10;20.90;99.90
24011;DHT22;12217;50.792;4.372;2022-09-13T07:18:36;20.70;99.90
24011;DHT22;12217;50.792;4.372;2022-09-13T07:21:05;20.80;99.90
24011;DHT22;12217;50.792;4.372;2022-09-13T07:23:32;20.80;99.90
24011;DHT22;12217;50.792;4.372;2022-09-13T07:25:58;20.80;99.90
24011;DHT22;12217;50.792;4.372;2022-09-13T07:28:51;20.80;99.90
24011;DHT22;12217;50.792;4.372;2022-09-13T07:31:22;20.90;99.90
24011;DHT22;12217;50.792;4.372;2022-09-13T07:33:53;21.00;99.90
24011;DHT22;12217;50.792;4.372;2022-09-13T07:36:21;21.10;99.90
24011;DHT22;12217;50.792;4.372;2022-09-13T07:38:47;21.10;99.90
24011;DHT22;12217;50.792;4.372;2022-09-13T07:41:15;21.10;99.90
24011;DHT22;12217;50.792;4.372;2022-09-13T07:43:42;21.20;99.90
24011;DHT22;12217;50.792;4.372;2022-09-13T07:46:12;21.30;99.90
24011;DHT22;12217;50.792;4.372;2022-09-13T07:48:41;21.40;99.90
24011;DHT22;12217;50.792;4.372;2022-09-13T07:51:15;21.40;99.90
24011;DHT22;12217;50.792;4.372;2022-09-13T07:53:42;21.50;99.90
24011;DHT22;12217;50.792;4.372;2022-09-13T07:56:13;21.60;99.90
24011;DHT22;12217;50.792;4.372;2022-09-13T07:58:41;21.60;99.90
24011;DHT22;12217;50.792;4.372;2022-09-13T08:01:15;21.60;99.90
24011;DHT22;12217;50.792;4.372;2022-09-13T08:03:41;21.70;99.90
24011;DHT22;12217;50.792;4.372;2022-09-13T08:06:07;21.70;99.90
24011;DHT22;12217;50.792;4.372;2022-09-13T08:08:34;21.80;99.90
24011;DHT22;12217;50.792;4.372;2022-09-13T08:11:02;22.00;99.90
24011;DHT22;12217;50.792;4.372;2022-09-13T08:13:29;22.00;99.90
24011;DHT22;12217;50.792;4.372;2022-09-13T08:16:00;22.10;99.90
24011;DHT22;12217;50.792;4.372;2022-09-13T08:18:26;22.20;99.90
24011;DHT22;12217;50.792;4.372;2022-09-13T08:20:55;22.20;99.90
24011;DHT22;12217;50.792;4.372;2022-09-13T08:23:22;22.30;99.90
24011;DHT22;12217;50.792;4.372;2022-09-13T08:25:48;22.40;99.90
24011;DHT22;12217;50.792;4.372;2022-09-13T08:28:15;22.50;99.90
24011;DHT22;12217;50.792;4.372;2022-09-13T08:30:42;22.70;99.90
24011;DHT22;12217;50.792;4.372;2022-09-13T08:33:09;22.80;99.90
24011;DHT22;12217;50.792;4.372;2022-09-13T08:35:36;22.90;99.90
24011;DHT22;12217;50.792;4.372;2022-09-13T08:38:02;22.90;99.90
24011;DHT22;12217;50.792;4.372;2022-09-13T08:40:39;23.00;99.90
24011;DHT22;12217;50.792;4.372;2022-09-13T08:45:49;22.90;99.90
24011;DHT22;12217;50.792;4.372;2022-09-13T08:48:19;23.00;99.90
24011;DHT22;12217;50.792;4.372;2022-09-13T08:50:47;23.00;99.90
24011;DHT22;12217;50.792;4.372;2022-09-13T09:04:55;23.10;99.90
24011;DHT22;12217;50.792;4.372;2022-09-13T09:09:38;23.30;99.90
24011;DHT22;12217;50.792;4.372;2022-09-13T09:14:39;23.60;99.90
24011;DHT22;12217;50.792;4.372;2022-09-13T09:17:21;23.80;99.90
24011;DHT22;12217;50.792;4.372;2022-09-13T09:20:01;23.90;99.90
24011;DHT22;12217;50.792;4.372;2022-09-13T09:22:32;24.00;99.90
24011;DHT22;12217;50.792;4.372;2022-09-13T09:24:59;24.10;99.90
24011;DHT22;12217;50.792;4.372;2022-09-13T09:27:25;24.10;99.90
24011;DHT22;12217;50.792;4.372;2022-09-13T09:29:53;24.20;99.90
24011;DHT22;12217;50.792;4.372;2022-09-13T09:35:15;24.30;99.90
24011;DHT22;12217;50.792;4.372;2022-09-13T09:37:49;24.40;99.90
24011;DHT22;12217;50.792;4.372;2022-09-13T09:40:19;24.40;99.90
24011;DHT22;12217;50.792;4.372;2022-09-13T09:42:47;24.50;99.90
24011;DHT22;12217;50.792;4.372;2022-09-13T09:45:31;24.50;99.90
24011;DHT22;12217;50.792;4.372;2022-09-13T09:48:00;24.50;99.90
24011;DHT22;12217;50.792;4.372;2022-09-13T09:50:32;24.50;99.90
24011;DHT22;12217;50.792;4.372;2022-09-13T09:53:11;24.50;99.90
24011;DHT22;12217;50.792;4.372;2022-09-13T09:55:49;24.50;99.90
24011;DHT22;12217;50.792;4.372;2022-09-13T09:58:41;24.40;99.90
24011;DHT22;12217;50.792;4.372;2022-09-13T10:01:33;24.50;99.90
24011;DHT22;12217;50.792;4.372;2022-09-13T10:04:14;24.60;99.90
24011;DHT22;12217;50.792;4.372;2022-09-13T10:06:43;24.70;99.90
24011;DHT22;12217;50.792;4.372;2022-09-13T10:11:41;24.90;99.90
24011;DHT22;12217;50.792;4.372;2022-09-13T10:14:40;24.90;99.90
24011;DHT22;12217;50.792;4.372;2022-09-13T10:22:23;25.00;99.90
24011;DHT22;12217;50.792;4.372;2022-09-13T10:24:49;24.70;99.90
24011;DHT22;12217;50.792;4.372;2022-09-13T10:27:32;24.50;99.90
24011;DHT22;12217;50.792;4.372;2022-09-13T10:30:00;24.30;99.90
24011;DHT22;12217;50.792;4.372;2022-09-13T10:32:27;24.50;99.90
24011;DHT22;12217;50.792;4.372;2022-09-13T10:34:54;24.50;99.90
24011;DHT22;12217;50.792;4.372;2022-09-13T10:37:24;24.20;99.90
24011;DHT22;12217;50.792;4.372;2022-09-13T10:40:03;24.00;99.90
24011;DHT22;12217;50.792;4.372;2022-09-13T10:42:31;24.10;99.90
24011;DHT22;12217;50.792;4.372;2022-09-13T10:45:02;24.00;99.90
24011;DHT22;12217;50.792;4.372;2022-09-13T10:47:49;24.10;99.90
24011;DHT22;12217;50.792;4.372;2022-09-13T10:52:48;24.30;99.90
24011;DHT22;12217;50.792;4.372;2022-09-13T10:58:14;24.50;99.90
24011;DHT22;12217;50.792;4.372;2022-09-13T11:16:16;24.40;99.90
24011;DHT22;12217;50.792;4.372;2022-09-13T11:18:57;24.20;99.90
24011;DHT22;12217;50.792;4.372;2022-09-13T11:21:39;24.30;99.90
24011;DHT22;12217;50.792;4.372;2022-09-13T11:27:01;24.50;99.90
24011;DHT22;12217;50.792;4.372;2022-09-13T11:29:52;24.60;99.90
24011;DHT22;12217;50.792;4.372;2022-09-13T11:50:10;24.80;99.90
24011;DHT22;12217;50.792;4.372;2022-09-13T11:53:06;24.60;99.90
24011;DHT22;12217;50.792;4.372;2022-09-13T11:55:42;24.60;99.90
24011;DHT22;12217;50.792;4.372;2022-09-13T11:58:13;24.70;99.90
24011;DHT22;12217;50.792;4.372;2022-09-13T12:00:43;24.90;99.90
24011;DHT22;12217;50.792;4.372;2022-09-13T12:05:49;24.80;99.90
24011;DHT22;12217;50.792;4.372;2022-09-13T12:08:24;24.70;99.90
24011;DHT22;12217;50.792;4.372;2022-09-13T12:13:54;24.70;99.90
24011;DHT22;12217;50.792;4.372;2022-09-13T12:21:46;24.50;99.90
24011;DHT22;12217;50.792;4.372;2022-09-13T12:26:53;24.60;99.90
24011;DHT22;12217;50.792;4.372;2022-09-13T12:29:34;24.80;99.90
24011;DHT22;12217;50.792;4.372;2022-09-13T12:32:05;24.80;99.90
24011;DHT22;12217;50.792;4.372;2022-09-13T12:37:17;24.80;99.90
24011;DHT22;12217;50.792;4.372;2022-09-13T12:40:23;24.80;99.90
24011;DHT22;12217;50.792;4.372;2022-09-13T12:59:26;25.00;99.90
24011;DHT22;12217;50.792;4.372;2022-09-13T13:02:02;25.00;99.90
24011;DHT22;12217;50.792;4.372;2022-09-13T13:04:32;25.00;99.90
24011;DHT22;12217;50.792;4.372;2022-09-13T13:07:02;25.00;99.90
24011;DHT22;12217;50.792;4.372;2022-09-13T13:09:45;25.10;99.90
24011;DHT22;12217;50.792;4.372;2022-09-13T13:14:56;25.10;99.90
24011;DHT22;12217;50.792;4.372;2022-09-13T13:17:43;24.90;99.90
24011;DHT22;12217;50.792;4.372;2022-09-13T13:23:34;24.70;99.90
24011;DHT22;12217;50.792;4.372;2022-09-13T13:31:43;24.50;99.90
24011;DHT22;12217;50.792;4.372;2022-09-13T13:59:49;23.90;99.90
24011;DHT22;12217;50.792;4.372;2022-09-13T14:02:20;24.00;99.90
24011;DHT22;12217;50.792;4.372;2022-09-13T14:05:07;24.10;99.90
24011;DHT22;12217;50.792;4.372;2022-09-13T14:16:13;24.00;99.90
24011;DHT22;12217;50.792;4.372;2022-09-13T14:21:28;23.90;99.90
24011;DHT22;12217;50.792;4.372;2022-09-13T14:24:26;24.00;99.90
24011;DHT22;12217;50.792;4.372;2022-09-13T14:26:57;24.10;99.90
24011;DHT22;12217;50.792;4.372;2022-09-13T14:29:24;24.20;99.90
24011;DHT22;12217;50.792;4.372;2022-09-13T14:31:55;24.20;99.90
24011;DHT22;12217;50.792;4.372;2022-09-13T14:34:30;24.20;99.90
24011;DHT22;12217;50.792;4.372;2022-09-13T14:37:00;24.10;99.90
24011;DHT22;12217;50.792;4.372;2022-09-13T14:39:27;24.00;99.90
24011;DHT22;12217;50.792;4.372;2022-09-13T14:42:21;23.90;99.90
24011;DHT22;12217;50.792;4.372;2022-09-13T14:44:46;24.00;99.90
24011;DHT22;12217;50.792;4.372;2022-09-13T14:47:31;24.10;99.90
24011;DHT22;12217;50.792;4.372;2022-09-13T14:50:24;24.00;99.90
24011;DHT22;12217;50.792;4.372;2022-09-13T14:52:57;24.00;99.90
24011;DHT22;12217;50.792;4.372;2022-09-13T14:55:32;24.00;99.90
24011;DHT22;12217;50.792;4.372;2022-09-13T14:58:02;24.00;99.90
24011;DHT22;12217;50.792;4.372;2022-09-13T15:00:37;24.00;99.90
24011;DHT22;12217;50.792;4.372;2022-09-13T15:03:13;24.00;99.90
24011;DHT22;12217;50.792;4.372;2022-09-13T15:05:40;24.00;99.90
24011;DHT22;12217;50.792;4.372;2022-09-13T15:10:58;23.90;99.90
24011;DHT22;12217;50.792;4.372;2022-09-13T15:13:24;23.90;99.90
24011;DHT22;12217;50.792;4.372;2022-09-13T15:15:51;23.90;99.90
24011;DHT22;12217;50.792;4.372;2022-09-13T15:23:39;23.90;99.90
24011;DHT22;12217;50.792;4.372;2022-09-13T15:28:52;23.70;99.90
24011;DHT22;12217;50.792;4.372;2022-09-13T15:31:37;23.60;99.90
24011;DHT22;12217;50.792;4.372;2022-09-13T15:34:28;23.50;99.90
24011;DHT22;12217;50.792;4.372;2022-09-13T15:37:02;23.40;99.90
24011;DHT22;12217;50.792;4.372;2022-09-13T15:40:04;23.30;99.90
24011;DHT22;12217;50.792;4.372;2022-09-13T15:42:32;23.40;99.90
24011;DHT22;12217;50.792;4.372;2022-09-13T15:45:03;23.40;99.90
24011;DHT22;12217;50.792;4.372;2022-09-13T15:47:29;23.40;99.90
24011;DHT22;12217;50.792;4.372;2022-09-13T15:49:55;23.50;99.90
24011;DHT22;12217;50.792;4.372;2022-09-13T15:52:21;23.40;99.90
24011;DHT22;12217;50.792;4.372;2022-09-13T15:54:49;23.40;99.90
24011;DHT22;12217;50.792;4.372;2022-09-13T15:57:24;23.40;99.90
24011;DHT22;12217;50.792;4.372;2022-09-13T15:59:50;23.40;99.90
24011;DHT22;12217;50.792;4.372;2022-09-13T16:02:20;23.40;99.90
24011;DHT22;12217;50.792;4.372;2022-09-13T16:04:47;23.30;99.90
24011;DHT22;12217;50.792;4.372;2022-09-13T16:07:13;23.30;99.90
24011;DHT22;12217;50.792;4.372;2022-09-13T16:09:39;23.40;99.90
24011;DHT22;12217;50.792;4.372;2022-09-13T16:12:04;23.10;99.90
24011;DHT22;12217;50.792;4.372;2022-09-13T16:14:30;22.90;99.90
24011;DHT22;12217;50.792;4.372;2022-09-13T16:17:06;22.80;99.90
24011;DHT22;12217;50.792;4.372;2022-09-13T16:19:32;22.70;99.90
24011;DHT22;12217;50.792;4.372;2022-09-13T16:21:58;22.80;99.90
24011;DHT22;12217;50.792;4.372;2022-09-13T16:24:24;22.70;99.90
24011;DHT22;12217;50.792;4.372;2022-09-13T16:26:49;22.60;99.90
24011;DHT22;12217;50.792;4.372;2022-09-13T16:29:15;22.70;99.90
24011;DHT22;12217;50.792;4.372;2022-09-13T16:31:40;22.80;99.90
24011;DHT22;12217;50.792;4.372;2022-09-13T16:34:06;22.90;99.90
24011;DHT22;12217;50.792;4.372;2022-09-13T16:36:32;22.90;99.90
24011;DHT22;12217;50.792;4.372;2022-09-13T16:38:58;22.90;99.90
24011;DHT22;12217;50.792;4.372;2022-09-13T16:41:24;22.70;99.90
24011;DHT22;12217;50.792;4.372;2022-09-13T16:43:49;22.70;99.90
24011;DHT22;12217;50.792;4.372;2022-09-13T16:46:15;22.70;99.90
24011;DHT22;12217;50.792;4.372;2022-09-13T16:48:41;22.70;99.90
24011;DHT22;12217;50.792;4.372;2022-09-13T16:51:09;22.70;99.90
24011;DHT22;12217;50.792;4.372;2022-09-13T16:53:37;22.50;99.90
24011;DHT22;12217;50.792;4.372;2022-09-13T16:56:08;22.40;99.90
24011;DHT22;12217;50.792;4.372;2022-09-13T16:58:38;22.40;99.90
24011;DHT22;12217;50.792;4.372;2022-09-13T17:01:05;22.50;99.90
24011;DHT22;12217;50.792;4.372;2022-09-13T17:03:31;22.60;99.90
24011;DHT22;12217;50.792;4.372;2022-09-13T17:05:59;22.60;99.90
24011;DHT22;12217;50.792;4.372;2022-09-13T17:08:25;22.70;99.90
24011;DHT22;12217;50.792;4.372;2022-09-13T17:10:51;22.60;99.90
24011;DHT22;12217;50.792;4.372;2022-09-13T17:13:17;22.60;99.90
24011;DHT22;12217;50.792;4.372;2022-09-13T17:15:43;22.60;99.90
24011;DHT22;12217;50.792;4.372;2022-09-13T17:18:09;22.50;99.90
24011;DHT22;12217;50.792;4.372;2022-09-13T17:20:35;22.50;99.90
24011;DHT22;12217;50.792;4.372;2022-09-13T17:23:00;22.50;99.90
24011;DHT22;12217;50.792;4.372;2022-09-13T17:25:26;22.50;99.90
24011;DHT22;12217;50.792;4.372;2022-09-13T17:27:52;22.40;99.90
24011;DHT22;12217;50.792;4.372;2022-09-13T17:30:17;22.40;99.90
24011;DHT22;12217;50.792;4.372;2022-09-13T17:32:43;22.40;99.90
24011;DHT22;12217;50.792;4.372;2022-09-13T17:35:08;22.30;99.90
24011;DHT22;12217;50.792;4.372;2022-09-13T17:37:36;22.30;99.90
24011;DHT22;12217;50.792;4.372;2022-09-13T17:40:02;21.80;99.90
24011;DHT22;12217;50.792;4.372;2022-09-13T17:42:27;21.70;99.90
24011;DHT22;12217;50.792;4.372;2022-09-13T17:44:53;21.80;99.90
24011;DHT22;12217;50.792;4.372;2022-09-13T17:47:19;21.90;99.90
24011;DHT22;12217;50.792;4.372;2022-09-13T17:49:44;22.00;99.90
24011;DHT22;12217;50.792;4.372;2022-09-13T17:52:12;22.00;99.90
24011;DHT22;12217;50.792;4.372;2022-09-13T17:54:38;21.80;99.90
24011;DHT22;12217;50.792;4.372;2022-09-13T17:57:04;21.90;99.90
24011;DHT22;12217;50.792;4.372;2022-09-13T17:59:29;21.90;99.90
24011;DHT22;12217;50.792;4.372;2022-09-13T18:01:57;22.00;99.90
24011;DHT22;12217;50.792;4.372;2022-09-13T18:04:25;22.00;99.90
24011;DHT22;12217;50.792;4.372;2022-09-13T18:06:51;22.00;99.90
24011;DHT22;12217;50.792;4.372;2022-09-13T18:09:17;22.00;99.90
24011;DHT22;12217;50.792;4.372;2022-09-13T18:11:43;22.00;99.90
24011;DHT22;12217;50.792;4.372;2022-09-13T18:14:11;21.90;99.90
24011;DHT22;12217;50.792;4.372;2022-09-13T18:16:38;21.90;99.90
24011;DHT22;12217;50.792;4.372;2022-09-13T18:19:03;21.90;99.90
24011;DHT22;12217;50.792;4.372;2022-09-13T18:21:29;21.90;99.90
24011;DHT22;12217;50.792;4.372;2022-09-13T18:23:57;21.90;99.90
24011;DHT22;12217;50.792;4.372;2022-09-13T18:26:24;21.80;99.90
24011;DHT22;12217;50.792;4.372;2022-09-13T18:29:02;21.90;99.90
24011;DHT22;12217;50.792;4.372;2022-09-13T18:31:30;21.80;99.90
24011;DHT22;12217;50.792;4.372;2022-09-13T18:34:04;21.80;99.90
24011;DHT22;12217;50.792;4.372;2022-09-13T18:36:31;21.70;99.90
24011;DHT22;12217;50.792;4.372;2022-09-13T18:39:00;21.80;99.90
24011;DHT22;12217;50.792;4.372;2022-09-13T18:41:34;21.80;99.90
24011;DHT22;12217;50.792;4.372;2022-09-13T18:44:00;21.70;99.90
24011;DHT22;12217;50.792;4.372;2022-09-13T18:46:28;21.70;99.90
24011;DHT22;12217;50.792;4.372;2022-09-13T18:48:57;21.60;99.90
24011;DHT22;12217;50.792;4.372;2022-09-13T18:51:29;21.70;99.90
24011;DHT22;12217;50.792;4.372;2022-09-13T18:53:55;21.60;99.90
24011;DHT22;12217;50.792;4.372;2022-09-13T18:56:23;21.70;99.90
24011;DHT22;12217;50.792;4.372;2022-09-13T18:58:49;21.60;99.90
24011;DHT22;12217;50.792;4.372;2022-09-13T19:01:17;21.70;99.90
24011;DHT22;12217;50.792;4.372;2022-09-13T19:03:52;21.60;99.90
24011;DHT22;12217;50.792;4.372;2022-09-13T19:06:26;21.50;99.90
24011;DHT22;12217;50.792;4.372;2022-09-13T19:08:56;21.60;99.90
24011;DHT22;12217;50.792;4.372;2022-09-13T19:11:23;21.60;99.90
24011;DHT22;12217;50.792;4.372;2022-09-13T19:13:49;21.60;99.90
24011;DHT22;12217;50.792;4.372;2022-09-13T19:16:17;21.60;99.90
24011;DHT22;12217;50.792;4.372;2022-09-13T19:18:44;21.60;99.90
24011;DHT22;12217;50.792;4.372;2022-09-13T19:21:16;21.50;99.90
24011;DHT22;12217;50.792;4.372;2022-09-13T19:23:44;21.50;99.90
24011;DHT22;12217;50.792;4.372;2022-09-13T19:26:34;21.50;99.90